Time;durP1;ratioP1;P1;durP2;ratioP2;P2;SDS_P1;SDS_P2;PMS_P1;PMS_P2;Temp;Humidity;BMP_temperature;BMP_pressure;BME280_temperature;BME280_humidity;BME280_pressure;Samples;Min_cycle;Max_cycle;Signal;HPM_P1;HPM_P2
2023/12/27 00:06:43;;;;;;;9.10;4.20;;;;;;;5.32;100.00;98978.05;272304;1282;22223;-92
2023/12/27 00:14:10;;;;;;;10.60;4.30;;;;;;;5.34;100.00;98993.55;272531;1283;22235;-92
2023/12/27 00:21:53;;;;;;;10.50;4.30;;;;;;;5.34;100.00;99002.86;273253;1278;22675;-91
2023/12/27 00:29:49;;;;;;;10.30;3.40;;;;;;;5.31;100.00;99012.93;271921;1270;22548;-90
2023/12/27 00:37:10;;;;;;;6.50;3.00;;;;;;;5.34;100.00;99030.88;270869;1278;22210;-89
2023/12/27 00:45:02;;;;;;;8.90;3.70;;;;;;;5.37;100.00;99047.17;272018;1286;22470;-91
2023/12/27 00:52:55;;;;;;;6.40;2.60;;;;;;;5.44;100.00;99062.05;271809;1285;22236;-90
2023/12/27 01:00:41;;;;;;;5.10;2.40;;;;;;;5.53;100.00;99070.12;272754;1278;23016;-91
2023/12/27 01:08:22;;;;;;;2.80;1.50;;;;;;;5.55;100.00;99081.02;273155;1278;22206;-89
2023/12/27 01:16:08;;;;;;;6.50;2.30;;;;;;;5.56;100.00;99089.68;272590;1256;22322;-90
2023/12/27 01:23:41;;;;;;;4.40;1.60;;;;;;;5.63;100.00;99098.52;272833;1280;22192;-90
2023/12/27 01:31:33;;;;;;;4.90;2.00;;;;;;;5.72;100.00;99113.55;271611;1287;22251;-89
2023/12/27 01:39:32;;;;;;;5.90;2.20;;;;;;;5.79;100.00;99120.45;270565;1284;22448;-92
2023/12/27 01:47:17;;;;;;;7.70;2.30;;;;;;;5.81;100.00;99126.64;270420;1288;22953;-90
2023/12/27 01:55:09;;;;;;;5.90;2.00;;;;;;;5.72;100.00;99121.15;271051;1290;22244;-93
2023/12/27 02:10:21;;;;;;;4.00;1.70;;;;;;;5.75;100.00;99124.90;269845;1291;23049;-91
2023/12/27 02:18:05;;;;;;;2.70;1.80;;;;;;;5.76;100.00;99137.11;271006;1284;22240;-90
2023/12/27 02:25:47;;;;;;;4.70;1.20;;;;;;;5.76;100.00;99147.73;270952;1277;22246;-91
2023/12/27 02:32:47;;;;;;;3.30;1.60;;;;;;;5.80;100.00;99146.33;271720;1254;22544;-89
2023/12/27 02:39:33;;;;;;;4.80;1.50;;;;;;;5.76;100.00;99140.38;272665;1277;22214;-91
2023/12/27 02:47:06;;;;;;;3.90;1.40;;;;;;;5.76;100.00;99151.16;273572;1277;22180;-91
2023/12/27 02:53:59;;;;;;;2.00;0.90;;;;;;;5.92;100.00;99157.05;273356;1278;22210;-95
2023/12/27 03:00:22;;;;;;;3.60;1.40;;;;;;;6.02;100.00;99162.79;270990;1256;23424;-91
2023/12/27 03:06:54;;;;;;;4.70;1.10;;;;;;;6.07;100.00;99170.52;272476;1272;24223;-91
2023/12/27 03:13:37;;;;;;;3.50;1.30;;;;;;;6.13;100.00;99178.31;272707;1268;22268;-91
2023/12/27 03:20:20;;;;;;;7.70;1.50;;;;;;;6.13;100.00;99185.46;270909;1270;22542;-91
2023/12/27 03:27:43;;;;;;;4.00;1.30;;;;;;;6.11;100.00;99188.29;270811;1270;22562;-93
2023/12/27 03:34:43;;;;;;;4.40;1.30;;;;;;;6.04;100.00;99195.25;270264;1272;22571;-91
2023/12/27 03:40:47;;;;;;;3.10;1.10;;;;;;;5.95;100.00;99222.30;271819;1270;22322;-91
2023/12/27 03:47:10;;;;;;;3.40;1.50;;;;;;;5.84;100.00;99245.60;271385;1273;22568;-91
2023/12/27 03:54:21;;;;;;;;;;;;;;;;;;;;;
2023/12/27 04:01:39;;;;;;;4.80;1.20;;;;;;;5.59;100.00;99284.77;271721;1275;22595;-91
2023/12/27 04:08:40;;;;;;;3.90;1.40;;;;;;;5.32;100.00;99293.99;273594;1277;22947;-91
2023/12/27 04:24:14;;;;;;;3.70;1.30;;;;;;;4.93;100.00;99313.81;272217;1277;22567;-90
2023/12/27 04:32:02;;;;;;;5.00;1.40;;;;;;;4.80;100.00;99329.50;273399;1276;22166;-89
2023/12/27 04:39:47;;;;;;;8.40;2.50;;;;;;;4.64;100.00;99348.39;271210;1279;22668;-91
2023/12/27 04:47:50;;;;;;;10.20;2.60;;;;;;;4.50;100.00;99364.73;269188;1284;23300;-91
2023/12/27 04:55:39;;;;;;;4.60;1.80;;;;;;;4.37;100.00;99365.36;271902;1285;22306;-91
2023/12/27 05:03:38;;;;;;;6.00;2.20;;;;;;;4.30;100.00;99366.65;272002;1280;22204;-89
2023/12/27 05:11:03;;;;;;;5.60;1.50;;;;;;;4.25;100.00;99376.77;270269;1274;22585;-90
2023/12/27 05:18:44;;;;;;;5.70;2.00;;;;;;;4.19;100.00;99388.50;268996;1266;22565;-91
2023/12/27 05:26:11;;;;;;;;;;;;;;;;;;;;;
2023/12/27 05:33:48;;;;;;;3.60;1.10;;;;;;;4.15;100.00;99407.64;272271;1277;23027;-91
2023/12/27 05:41:05;;;;;;;3.70;1.50;;;;;;;4.22;100.00;99411.77;272252;1278;23670;-94
2023/12/27 05:47:07;;;;;;;3.00;1.00;;;;;;;4.22;100.00;99426.81;272134;1275;22467;-90
2023/12/27 05:53:09;;;;;;;7.00;1.50;;;;;;;4.17;100.00;99442.29;272244;1276;23453;-90
2023/12/27 05:59:11;;;;;;;8.20;1.90;;;;;;;4.06;100.00;99452.66;271369;1276;22355;-90
2023/12/27 06:05:13;;;;;;;8.90;2.40;;;;;;;3.96;100.00;99460.12;271360;1274;22562;-91
2023/12/27 06:11:15;;;;;;;8.10;2.00;;;;;;;3.86;100.00;99469.79;271743;1275;23437;-89
2023/12/27 06:17:17;;;;;;;4.80;1.90;;;;;;;3.78;100.00;99483.60;271760;1276;22567;-90
2023/12/27 06:23:19;;;;;;;7.70;2.40;;;;;;;3.71;100.00;99491.17;270616;1272;23274;-91
2023/12/27 06:29:21;;;;;;;4.20;1.70;;;;;;;3.66;100.00;99499.57;272829;1271;22202;-92
2023/12/27 06:35:23;;;;;;;4.60;1.60;;;;;;;3.60;100.00;99508.20;272901;1276;22187;-90
2023/12/27 06:41:25;;;;;;;5.10;1.60;;;;;;;3.55;100.00;99520.52;272977;1274;22181;-89
2023/12/27 06:47:27;;;;;;;7.10;1.50;;;;;;;3.53;100.00;99535.48;273021;1273;22424;-91
2023/12/27 06:53:29;;;;;;;7.50;1.70;;;;;;;3.53;100.00;99551.95;273212;1272;22392;-90
2023/12/27 06:59:31;;;;;;;4.80;1.60;;;;;;;3.51;100.00;99567.73;273334;1276;22176;-90
2023/12/27 07:05:33;;;;;;;4.20;1.70;;;;;;;3.48;99.98;99580.76;273164;1269;22442;-91
2023/12/27 07:11:35;;;;;;;4.00;1.80;;;;;;;3.44;99.95;99586.25;273411;1272;22237;-89
2023/12/27 07:17:37;;;;;;;8.00;1.60;;;;;;;3.44;99.84;99598.86;273384;1272;23760;-90
2023/12/27 07:23:39;;;;;;;3.90;1.80;;;;;;;3.46;99.63;99610.25;273372;1269;22979;-89
2023/12/27 07:29:41;;;;;;;5.80;1.70;;;;;;;3.44;99.47;99620.76;273233;1272;23329;-90
2023/12/27 07:35:43;;;;;;;4.00;1.50;;;;;;;3.44;99.73;99628.79;273292;1272;23179;-90
2023/12/27 07:41:45;;;;;;;12.00;2.90;;;;;;;3.59;100.00;99641.52;273414;1261;22257;-90
2023/12/27 07:47:46;;;;;;;11.30;3.30;;;;;;;3.75;100.00;99650.89;273292;1272;23661;-89
2023/12/27 07:53:50;;;;;;;10.50;2.80;;;;;;;3.84;99.98;99651.27;273107;1272;232911;-89
2023/12/27 07:59:55;;;;;;;11.50;3.30;;;;;;;3.90;99.95;99659.87;272322;1272;22280;-89
2023/12/27 08:05:57;;;;;;;8.10;2.60;;;;;;;3.99;99.92;99668.75;272772;1271;22537;-90
2023/12/27 08:11:59;;;;;;;6.60;2.40;;;;;;;4.09;99.77;99684.27;272499;1263;23705;-89
2023/12/27 08:18:12;;;;;;;5.50;2.20;;;;;;;4.18;99.58;99699.67;272144;1277;22739;-89
2023/12/27 08:24:14;;;;;;;8.90;2.30;;;;;;;4.27;99.49;99711.36;271196;1270;23057;-91
2023/12/27 08:30:16;;;;;;;6.90;2.90;;;;;;;4.46;99.53;99720.87;273016;1278;22181;-90
2023/12/27 08:36:29;;;;;;;7.70;3.00;;;;;;;4.75;99.70;99734.04;272023;1270;23499;-92
2023/12/27 08:42:35;;;;;;;8.90;3.10;;;;;;;5.03;99.22;99736.40;270987;1269;23808;-91
2023/12/27 08:48:37;;;;;;;8.40;2.10;;;;;;;5.21;98.60;99740.11;271793;1270;24303;-90
2023/12/27 08:54:40;;;;;;;9.00;2.60;;;;;;;5.40;98.27;99745.02;271431;1272;22525;-90
2023/12/27 09:00:42;;;;;;;7.70;2.70;;;;;;;5.72;97.91;99747.55;272870;1273;22199;-91
2023/12/27 09:06:45;;;;;;;8.00;1.90;;;;;;;6.17;97.76;99755.98;271818;1271;22555;-92
2023/12/27 09:12:47;;;;;;;10.60;3.00;;;;;;;6.66;97.14;99761.46;270930;1270;22630;-90
2023/12/27 09:18:52;;;;;;;10.80;2.40;;;;;;;7.15;96.16;99770.34;272646;1270;22317;-91
2023/12/27 09:25:00;;;;;;;11.30;2.30;;;;;;;7.31;95.03;99766.58;271424;1270;22548;-91
2023/12/27 09:31:07;;;;;;;9.30;2.50;;;;;;;7.64;94.50;99770.52;270366;1270;22590;-90
2023/12/27 09:37:15;;;;;;;14.40;2.30;;;;;;;7.89;92.95;99765.29;272034;1274;22426;-90
2023/12/27 09:43:18;;;;;;;12.30;2.20;;;;;;;8.05;92.28;99756.92;272180;1273;24641;-91
2023/12/27 09:49:41;;;;;;;7.60;1.90;;;;;;;8.08;90.97;99757.81;272265;1280;23352;-90
2023/12/27 09:56:14;;;;;;;5.60;2.20;;;;;;;7.93;90.60;99766.48;272288;1274;24289;-90
2023/12/27 10:02:59;;;;;;;8.80;2.10;;;;;;;8.15;90.10;99762.92;271465;1279;22291;-92
2023/12/27 10:09:10;;;;;;;8.00;2.10;;;;;;;8.48;89.11;99756.55;271948;1273;22463;-90
2023/12/27 10:15:56;;;;;;;9.30;2.50;;;;;;;8.76;88.14;99749.16;271831;1275;22187;-91
2023/12/27 10:22:11;;;;;;;5.30;1.90;;;;;;;8.59;86.70;99742.06;271534;1273;22346;-91
2023/12/27 10:29:01;;;;;;;3.60;1.30;;;;;;;8.46;86.07;99742.36;272752;1273;22242;-91
2023/12/27 10:35:28;;;;;;;6.80;2.30;;;;;;;8.40;85.03;99741.70;272935;1260;23407;-91
2023/12/27 10:42:17;;;;;;;6.00;1.90;;;;;;;8.32;84.42;99737.64;273004;1270;22236;-90
2023/12/27 10:48:43;;;;;;;5.80;1.50;;;;;;;8.14;83.60;99736.27;270678;1275;22671;-90
2023/12/27 10:55:28;;;;;;;8.30;1.60;;;;;;;7.97;83.20;99736.02;271900;1271;22212;-91
2023/12/27 11:01:38;;;;;;;4.90;1.50;;;;;;;7.79;82.52;99735.80;272940;1272;22966;-92
2023/12/27 11:07:42;;;;;;;3.80;1.10;;;;;;;7.55;82.16;99738.08;272974;1270;22232;-91
2023/12/27 11:13:55;;;;;;;4.90;1.40;;;;;;;7.25;81.61;99735.86;272840;1261;22305;-90
2023/12/27 11:19:59;;;;;;;6.80;1.90;;;;;;;7.06;81.39;99732.81;272724;1273;22190;-92
2023/12/27 11:26:22;;;;;;;7.20;1.70;;;;;;;7.05;80.87;99736.35;272934;1274;23416;-92
2023/12/27 11:32:27;;;;;;;6.00;1.90;;;;;;;6.98;80.81;99740.63;271217;1271;23422;-90
2023/12/27 11:38:50;;;;;;;5.90;2.00;;;;;;;6.90;80.55;99739.13;271840;1274;22146;-90
2023/12/27 11:44:57;;;;;;;4.80;1.80;;;;;;;6.81;80.23;99731.19;272680;1270;22558;-92
2023/12/27 11:51:00;;;;;;;10.60;2.00;;;;;;;6.67;80.07;99731.04;271104;1276;22279;-91
2023/12/27 11:57:04;;;;;;;6.80;2.40;;;;;;;6.52;79.99;99722.77;271323;1273;22549;-91
2023/12/27 12:03:20;;;;;;;6.70;1.70;;;;;;;6.47;79.82;99715.80;272450;1275;22253;-89
2023/12/27 12:10:11;;;;;;;8.00;2.10;;;;;;;6.41;79.21;99713.02;272755;1277;22194;-89
2023/12/27 12:17:15;;;;;;;;;;;;;;;6.34;79.08;99709.89;273044;1270;22572;-89
2023/12/27 12:23:26;;;;;;;7.70;2.40;;;;;;;6.28;79.05;99706.22;273181;1271;23150;-90
2023/12/27 12:29:28;;;;;;;6.00;2.20;;;;;;;6.25;78.73;99707.36;273136;1267;22224;-89
2023/12/27 12:35:35;;;;;;;9.50;2.80;;;;;;;6.21;78.68;99705.81;273250;1277;22339;-91
2023/12/27 12:41:38;;;;;;;5.90;2.40;;;;;;;6.26;78.70;99701.09;272951;1278;22312;-89
2023/12/27 12:55:04;;;;;;;7.40;2.40;;;;;;;6.24;78.09;99691.33;273004;1271;22939;-91
2023/12/27 13:01:08;;;;;;;7.70;2.30;;;;;;;6.19;78.02;99687.30;272894;1273;23189;-90
2023/12/27 13:07:12;;;;;;;6.00;2.50;;;;;;;6.11;77.69;99681.49;272946;1270;23177;-89
2023/12/27 13:13:15;;;;;;;8.20;3.00;;;;;;;6.04;77.51;99679.58;271568;1271;22395;-90
2023/12/27 13:19:33;;;;;;;9.60;3.10;;;;;;;5.95;77.97;99675.27;273170;1274;22440;-90
2023/12/27 13:25:37;;;;;;;9.20;3.20;;;;;;;5.85;77.77;99672.59;273004;1273;22201;-90
2023/12/27 13:31:41;;;;;;;9.80;2.20;;;;;;;5.74;77.68;99668.55;272140;1271;22684;-90
2023/12/27 13:37:46;;;;;;;9.10;2.90;;;;;;;5.67;77.73;99664.11;272908;1270;23822;-88
2023/12/27 13:43:53;;;;;;;10.30;3.10;;;;;;;5.59;77.83;99667.08;273064;1270;22257;-90
2023/12/27 13:50:10;;;;;;;8.30;3.60;;;;;;;5.46;77.70;99674.90;273127;1271;22180;-89
2023/12/27 13:56:38;;;;;;;8.60;4.00;;;;;;;5.35;77.98;99683.59;273134;1269;22392;-91
2023/12/27 14:02:40;;;;;;;10.10;4.30;;;;;;;5.21;78.17;99682.92;273322;1269;22417;-90
2023/12/27 14:09:25;;;;;;;12.40;3.90;;;;;;;5.09;78.61;99685.25;273283;1275;23287;-90
2023/12/27 14:16:58;;;;;;;8.20;3.60;;;;;;;4.96;78.97;99688.41;273420;1277;22229;-89
2023/12/27 14:23:41;;;;;;;10.80;4.10;;;;;;;4.87;79.05;99682.13;273542;1276;22627;-89
2023/12/27 14:29:46;;;;;;;13.90;5.50;;;;;;;4.74;78.95;99679.54;273509;1272;22258;-89
2023/12/27 14:35:50;;;;;;;;;;;;;;;4.60;79.12;99674.56;273171;1271;22475;-90
2023/12/27 14:42:30;;;;;;;11.80;4.80;;;;;;;4.41;79.15;99674.77;273273;1270;22261;-89
2023/12/27 14:49:12;;;;;;;12.80;5.40;;;;;;;4.24;79.24;99679.54;273423;1272;22427;-90
2023/12/27 14:55:45;;;;;;;15.20;6.50;;;;;;;4.03;79.33;99677.45;273465;1271;22195;-89
2023/12/27 15:01:47;;;;;;;20.60;8.30;;;;;;;3.85;79.78;99680.14;273347;1259;22539;-90
2023/12/27 15:08:14;;;;;;;27.20;10.20;;;;;;;3.66;80.02;99686.97;273346;1272;22203;-89
2023/12/27 15:14:57;;;;;;;20.20;7.30;;;;;;;3.43;80.06;99689.38;272604;1270;22250;-89
2023/12/27 15:21:21;;;;;;;13.60;5.90;;;;;;;3.07;80.05;99693.49;273470;1272;22224;-90
2023/12/27 15:28:29;;;;;;;17.00;7.50;;;;;;;2.84;81.12;99688.01;273227;1274;22279;-90
2023/12/27 15:35:08;;;;;;;25.30;10.30;;;;;;;2.66;81.65;99678.13;273243;1271;22205;-89
2023/12/27 15:41:57;;;;;;;27.00;11.00;;;;;;;2.49;82.13;99675.08;273239;1269;23194;-89
2023/12/27 15:48:37;;;;;;;27.90;12.30;;;;;;;2.29;82.55;99675.42;273537;1273;22228;-89
2023/12/27 15:55:08;;;;;;;31.50;13.80;;;;;;;2.11;82.88;99675.38;273187;1272;22283;-89
2023/12/27 16:01:39;;;;;;;33.00;16.40;;;;;;;1.83;82.82;99671.83;273171;1275;22263;-89
2023/12/27 16:08:04;;;;;;;32.80;15.80;;;;;;;1.54;83.67;99670.28;272711;1272;22221;-89
2023/12/27 16:14:09;;;;;;;30.70;15.20;;;;;;;1.40;84.34;99677.30;273306;1272;22274;-89
2023/12/27 16:20:52;;;;;;;31.30;16.60;;;;;;;1.18;84.30;99676.73;273139;1272;22313;-89
2023/12/27 16:27:35;;;;;;;43.00;19.20;;;;;;;0.98;85.01;99681.25;272719;1270;22785;-89
2023/12/27 16:33:38;;;;;;;37.30;17.60;;;;;;;0.84;85.51;99685.26;272611;1270;22459;-89
2023/12/27 16:40:23;;;;;;;42.30;19.20;;;;;;;0.76;86.13;99685.66;273155;1269;22200;-89
2023/12/27 16:46:57;;;;;;;55.20;25.60;;;;;;;0.63;86.48;99692.07;273022;1272;22199;-88
2023/12/27 16:53:24;;;;;;;51.70;24.10;;;;;;;0.46;86.60;99691.08;273522;1272;22194;-89
2023/12/27 16:59:52;;;;;;;;;;;;;;;0.35;87.21;99692.65;273321;1276;22502;-89
2023/12/27 17:06:02;;;;;;;40.80;20.50;;;;;;;0.21;87.60;99707.39;271793;1272;22224;-89
2023/12/27 17:12:04;;;;;;;46.50;19.80;;;;;;;0.07;88.15;99712.09;271006;1271;22542;-89
2023/12/27 17:18:47;;;;;;;49.80;21.70;;;;;;;-0.07;88.32;99710.05;271151;1269;22612;-90
